createdAt,value
2022-11-28T00:01:30.265Z,8.73
2022-11-28T00:03:58.012Z,7.60
2022-11-28T00:06:26.846Z,7.10
2022-11-28T00:08:54.983Z,7.07
2022-11-28T00:11:22.712Z,7.00
2022-11-28T00:13:50.390Z,7.20
2022-11-28T00:16:21.891Z,6.27
2022-11-28T00:18:49.829Z,6.07
2022-11-28T00:21:18.272Z,6.70
2022-11-28T00:23:47.906Z,5.83
2022-11-28T00:26:17.590Z,6.23
2022-11-28T00:28:45.439Z,5.90
2022-11-28T00:31:14.496Z,6.17
2022-11-28T00:33:43.808Z,5.97
2022-11-28T00:36:12.176Z,5.87
2022-11-28T00:38:39.993Z,5.63
2022-11-28T00:41:09.854Z,5.00
2022-11-28T00:43:37.571Z,5.20
2022-11-28T00:46:07.834Z,5.00
2022-11-28T00:48:36.053Z,4.90
2022-11-28T00:51:10.127Z,5.50
2022-11-28T00:53:40.473Z,4.20
2022-11-28T00:56:09.455Z,4.80
2022-11-28T00:58:37.935Z,4.10
2022-11-28T01:01:09.345Z,4.03
2022-11-28T01:03:37.138Z,4.10
2022-11-28T01:06:05.103Z,4.30
2022-11-28T01:08:34.314Z,4.17
2022-11-28T01:11:02.327Z,4.00
2022-11-28T01:13:30.053Z,3.90
2022-11-28T01:15:58.707Z,3.97
2022-11-28T01:18:26.497Z,3.67
2022-11-28T01:20:54.234Z,3.57
2022-11-28T01:23:31.824Z,3.60
2022-11-28T01:26:01.918Z,3.37
2022-11-28T01:28:29.990Z,3.27
2022-11-28T01:30:57.719Z,3.07
2022-11-28T01:33:25.394Z,3.07
2022-11-28T01:35:56.870Z,3.27
2022-11-28T01:38:24.784Z,2.93
2022-11-28T01:40:52.865Z,3.30
2022-11-28T01:43:22.350Z,3.73
2022-11-28T01:45:50.120Z,2.70
2022-11-28T01:48:25.707Z,2.80
2022-11-28T01:50:55.891Z,3.30
2022-11-28T01:53:23.904Z,3.43
2022-11-28T01:55:55.535Z,3.20
2022-11-28T01:58:25.530Z,3.23
2022-11-28T02:00:53.504Z,2.87
2022-11-28T02:03:24.250Z,3.17
2022-11-28T02:05:52.695Z,3.40
2022-11-28T02:08:20.422Z,3.03
2022-11-28T02:11:03.683Z,3.10
2022-11-28T02:13:39.671Z,2.47
2022-11-28T02:16:25.751Z,2.90
2022-11-28T02:19:01.862Z,2.63
2022-11-28T02:21:48.249Z,2.57
2022-11-28T02:24:38.470Z,2.30
2022-11-28T02:27:18.523Z,2.57
2022-11-28T02:30:07.005Z,2.80
2022-11-28T02:32:46.258Z,2.70
2022-11-28T02:35:18.611Z,2.47
2022-11-28T02:37:53.914Z,2.80
2022-11-28T02:40:25.107Z,2.83
2022-11-28T02:43:02.695Z,2.60
2022-11-28T02:45:33.692Z,2.70
2022-11-28T02:48:05.044Z,2.40
2022-11-28T02:50:37.009Z,2.27
2022-11-28T02:53:07.365Z,2.50
2022-11-28T02:55:39.110Z,2.47
2022-11-28T02:58:06.867Z,2.57
2022-11-28T03:00:36.316Z,2.20
2022-11-28T03:03:28.926Z,2.40
2022-11-28T03:05:59.776Z,2.20
2022-11-28T03:08:36.593Z,2.47
2022-11-28T03:11:09.234Z,2.27
2022-11-28T03:13:40.956Z,2.20
2022-11-28T03:16:15.530Z,2.10
2022-11-28T03:18:47.262Z,1.90
2022-11-28T03:21:19.354Z,2.23
2022-11-28T03:23:47.181Z,2.30
2022-11-28T03:26:19.214Z,2.30
2022-11-28T03:28:50.426Z,2.30
2022-11-28T03:31:21.022Z,2.30
2022-11-28T03:33:53.105Z,2.33
2022-11-28T03:36:23.517Z,2.50
2022-11-28T03:38:55.846Z,2.23
2022-11-28T03:41:26.793Z,2.70
2022-11-28T03:43:56.681Z,2.40
2022-11-28T03:46:26.570Z,2.07
2022-11-28T03:48:59.442Z,2.43
2022-11-28T03:51:30.383Z,2.20
2022-11-28T03:54:02.062Z,2.40
2022-11-28T03:56:35.331Z,2.27
2022-11-28T03:59:05.368Z,2.40
2022-11-28T04:01:36.412Z,3.23
2022-11-28T04:04:14.822Z,4.27
2022-11-28T04:06:53.399Z,5.23
2022-11-28T04:09:26.308Z,5.93
2022-11-28T04:11:56.097Z,5.40
2022-11-28T04:14:26.133Z,6.20
2022-11-28T04:16:55.944Z,5.73
2022-11-28T04:19:29.659Z,5.67
2022-11-28T04:22:00.887Z,4.50
2022-11-28T04:24:32.868Z,4.13
2022-11-28T04:27:03.523Z,3.73
2022-11-28T04:29:34.353Z,4.40
2022-11-28T04:32:02.576Z,4.30
2022-11-28T04:34:32.061Z,3.73
2022-11-28T04:37:00.169Z,4.20
2022-11-28T04:39:28.546Z,4.50
2022-11-28T04:41:57.685Z,4.73
2022-11-28T04:44:29.359Z,4.10
2022-11-28T04:46:58.142Z,4.07
2022-11-28T04:49:27.415Z,3.90
2022-11-28T04:52:00.281Z,3.30
2022-11-28T04:54:32.642Z,3.80
2022-11-28T04:57:02.831Z,3.43
2022-11-28T04:59:31.955Z,3.30
2022-11-28T05:02:01.534Z,3.30
2022-11-28T05:04:29.256Z,3.60
2022-11-28T05:07:03.814Z,3.70
2022-11-28T05:09:31.518Z,3.63
2022-11-28T05:11:59.213Z,3.37
2022-11-28T05:14:27.014Z,3.63
2022-11-28T05:16:54.725Z,3.50
2022-11-28T05:19:22.506Z,3.13
2022-11-28T05:21:50.255Z,3.10
2022-11-28T05:24:19.301Z,2.90
2022-11-28T05:26:46.945Z,2.87
2022-11-28T05:29:14.726Z,2.77
2022-11-28T05:31:42.440Z,2.77
2022-11-28T05:34:10.277Z,2.90
2022-11-28T05:36:38.002Z,3.20
2022-11-28T05:39:05.728Z,2.70
2022-11-28T05:41:34.885Z,3.07
2022-11-28T05:44:02.599Z,3.03
2022-11-28T05:46:30.695Z,3.47
2022-11-28T05:48:58.442Z,3.20
2022-11-28T05:51:26.138Z,2.97
2022-11-28T05:53:53.921Z,3.03
2022-11-28T05:56:23.071Z,3.00
2022-11-28T05:58:53.412Z,3.40
2022-11-28T06:01:23.294Z,3.33
2022-11-28T06:03:51.967Z,3.37
2022-11-28T06:06:21.021Z,3.40
2022-11-28T06:08:51.525Z,3.17
2022-11-28T06:11:20.027Z,2.83
2022-11-28T06:13:49.161Z,2.77
2022-11-28T06:16:20.027Z,2.63
2022-11-28T06:18:48.144Z,2.70
2022-11-28T06:21:16.462Z,2.83
2022-11-28T06:23:44.143Z,2.70
2022-11-28T06:26:13.513Z,2.30
2022-11-28T06:28:41.697Z,2.30
2022-11-28T06:31:11.379Z,2.37
2022-11-28T06:33:40.578Z,2.57
2022-11-28T06:36:09.446Z,2.53
2022-11-28T06:38:37.388Z,2.30
2022-11-28T06:41:07.181Z,2.40
2022-11-28T06:43:35.145Z,2.73
2022-11-28T06:46:03.119Z,2.10
2022-11-28T06:48:32.267Z,2.40
2022-11-28T06:51:06.187Z,2.30
2022-11-28T06:53:34.213Z,2.27
2022-11-28T06:56:05.976Z,2.40
2022-11-28T06:58:33.938Z,2.43
2022-11-28T07:01:07.378Z,2.47
2022-11-28T07:03:35.164Z,2.40
2022-11-28T07:06:04.892Z,2.40
2022-11-28T07:08:33.252Z,2.33
2022-11-28T07:11:08.787Z,2.40
2022-11-28T07:13:36.821Z,2.30
2022-11-28T07:16:05.377Z,2.20
2022-11-28T07:18:33.777Z,2.50
2022-11-28T07:21:01.758Z,2.50
2022-11-28T07:23:30.867Z,2.57
2022-11-28T07:26:02.664Z,2.70
2022-11-28T07:28:31.031Z,2.63
2022-11-28T07:31:03.299Z,2.97
2022-11-28T07:33:31.434Z,2.60
2022-11-28T07:36:02.770Z,2.90
2022-11-28T07:38:32.140Z,2.33
2022-11-28T07:41:04.275Z,2.20
2022-11-28T07:43:32.152Z,3.00
2022-11-28T07:46:01.523Z,2.47
2022-11-28T07:48:29.614Z,2.50
2022-11-28T07:50:57.345Z,2.60
2022-11-28T07:53:25.033Z,2.50
2022-11-28T07:55:54.097Z,3.00
2022-11-28T07:58:22.140Z,2.80
2022-11-28T08:00:49.824Z,3.00
2022-11-28T08:03:17.464Z,3.00
2022-11-28T08:05:49.495Z,2.70
2022-11-28T08:08:17.717Z,3.27
2022-11-28T08:10:45.530Z,3.07
2022-11-28T08:13:14.831Z,2.63
2022-11-28T08:15:42.880Z,3.13
2022-11-28T08:18:10.917Z,3.53
2022-11-28T08:20:38.659Z,3.63
2022-11-28T08:23:06.377Z,3.57
2022-11-28T08:25:34.200Z,3.90
2022-11-28T08:28:01.954Z,4.40
2022-11-28T08:30:31.122Z,4.10
2022-11-28T08:32:59.298Z,4.23
2022-11-28T08:35:26.997Z,3.90
2022-11-28T08:37:57.681Z,3.60
2022-11-28T08:40:29.251Z,4.00
2022-11-28T08:42:56.916Z,3.40
2022-11-28T08:45:24.571Z,3.40
2022-11-28T08:47:53.611Z,3.27
2022-11-28T08:50:21.344Z,3.27
2022-11-28T08:52:49.961Z,3.60
2022-11-28T08:55:19.957Z,3.23
2022-11-28T08:57:51.327Z,3.20
2022-11-28T09:00:20.515Z,3.33
2022-11-28T09:02:48.264Z,3.20
2022-11-28T09:05:17.404Z,3.40
2022-11-28T09:07:45.164Z,3.20
2022-11-28T09:10:12.862Z,2.97
2022-11-28T09:12:40.532Z,3.47
2022-11-28T09:15:09.483Z,3.33
2022-11-28T09:17:37.173Z,2.93
2022-11-28T09:20:06.176Z,3.37
2022-11-28T09:22:35.486Z,3.43
2022-11-28T09:25:03.230Z,2.93
2022-11-28T09:27:30.959Z,3.40
2022-11-28T09:29:58.677Z,3.27
2022-11-28T09:32:26.417Z,3.57
2022-11-28T09:34:54.147Z,3.60
2022-11-28T09:37:21.891Z,3.50
2022-11-28T09:40:12.023Z,3.40
2022-11-28T09:42:43.559Z,3.40
2022-11-28T09:45:13.954Z,3.53
2022-11-28T09:47:44.135Z,4.00
2022-11-28T09:50:16.761Z,3.80
2022-11-28T09:52:48.294Z,4.47
2022-11-28T09:55:23.445Z,3.60
2022-11-28T09:57:52.559Z,3.60
2022-11-28T10:00:22.676Z,3.47
2022-11-28T10:03:03.514Z,3.47
2022-11-28T10:05:37.324Z,3.63
2022-11-28T10:08:17.189Z,3.73
2022-11-28T10:10:55.191Z,3.97
2022-11-28T10:13:41.167Z,3.60
2022-11-28T10:16:21.945Z,3.73
2022-11-28T10:18:52.211Z,3.70
2022-11-28T10:21:25.959Z,3.87
2022-11-28T10:23:56.402Z,3.93
2022-11-28T10:26:30.739Z,4.10
2022-11-28T10:28:59.423Z,4.37
2022-11-28T10:31:31.916Z,4.50
2022-11-28T10:34:04.682Z,4.53
2022-11-28T10:36:35.530Z,4.10
2022-11-28T10:39:11.181Z,3.80
2022-11-28T10:41:42.769Z,4.20
2022-11-28T10:44:19.950Z,3.90
2022-11-28T10:46:56.599Z,4.50
2022-11-28T10:49:32.073Z,4.67
2022-11-28T10:52:07.257Z,4.40
2022-11-28T10:55:06.181Z,4.00
2022-11-28T10:57:41.795Z,3.90
2022-11-28T11:00:12.870Z,4.43
2022-11-28T11:02:42.760Z,4.57
2022-11-28T11:05:14.014Z,4.30
2022-11-28T11:07:45.232Z,4.30
2022-11-28T11:10:19.276Z,4.63
2022-11-28T11:12:48.561Z,4.00
2022-11-28T11:15:19.446Z,4.60
2022-11-28T11:17:47.188Z,4.20
2022-11-28T11:20:34.528Z,4.10
2022-11-28T11:23:03.983Z,4.07
2022-11-28T11:25:33.031Z,3.90
2022-11-28T11:28:04.951Z,3.93
2022-11-28T11:30:35.367Z,4.40
2022-11-28T11:33:06.238Z,4.93
2022-11-28T11:35:37.189Z,5.13
2022-11-28T11:38:18.602Z,4.90
2022-11-28T11:40:46.421Z,4.50
2022-11-28T11:43:30.366Z,4.83
2022-11-28T11:46:09.139Z,4.90
2022-11-28T11:48:38.762Z,4.90
2022-11-28T11:51:07.121Z,5.23
2022-11-28T11:53:34.887Z,5.13
2022-11-28T11:56:04.761Z,4.80
2022-11-28T11:58:44.527Z,5.37
2022-11-28T12:01:13.181Z,5.07
2022-11-28T12:03:43.687Z,6.40
2022-11-28T12:06:15.375Z,5.20
2022-11-28T12:08:46.387Z,5.53
2022-11-28T12:11:16.738Z,6.17
2022-11-28T12:13:46.005Z,6.37
2022-11-28T12:16:30.642Z,6.53
2022-11-28T12:19:01.365Z,6.00
2022-11-28T12:21:35.405Z,7.27
2022-11-28T12:24:10.672Z,6.50
2022-11-28T12:26:44.516Z,5.83
2022-11-28T12:29:27.094Z,5.03
2022-11-28T12:32:07.037Z,5.03
2022-11-28T12:34:41.694Z,5.10
2022-11-28T12:37:17.994Z,4.77
2022-11-28T12:39:54.110Z,4.47
2022-11-28T12:42:32.429Z,4.57
2022-11-28T12:45:28.552Z,4.30
2022-11-28T12:48:02.734Z,4.90
2022-11-28T12:50:34.045Z,4.60
2022-11-28T12:53:28.924Z,5.57
2022-11-28T12:56:01.952Z,5.50
2022-11-28T12:58:33.979Z,4.87
2022-11-28T13:01:11.665Z,4.43
2022-11-28T13:03:42.384Z,4.50
2022-11-28T13:06:21.849Z,4.17
2022-11-28T13:09:08.584Z,4.17
2022-11-28T13:11:53.474Z,3.93
2022-11-28T13:14:29.267Z,4.37
2022-11-28T13:17:03.542Z,4.73
2022-11-28T13:19:37.417Z,4.83
2022-11-28T13:22:10.420Z,4.90
2022-11-28T13:27:22.048Z,5.33
2022-11-28T13:30:08.475Z,4.93
2022-11-28T13:32:44.765Z,5.40
2022-11-28T13:35:13.602Z,5.53
2022-11-28T13:40:37.756Z,5.60
2022-11-28T13:43:08.924Z,4.90
2022-11-28T13:45:39.280Z,5.93
2022-11-28T13:49:12.715Z,5.33
2022-11-28T13:51:32.306Z,5.63
2022-11-28T13:54:48.593Z,4.90
2022-11-28T13:57:25.113Z,5.67
2022-11-28T13:59:58.603Z,5.00
2022-11-28T14:02:36.981Z,5.30
2022-11-28T14:05:06.305Z,6.20
2022-11-28T14:07:36.234Z,5.60
2022-11-28T14:10:17.462Z,5.50
2022-11-28T14:12:52.325Z,5.60
2022-11-28T14:15:28.289Z,5.00
2022-11-28T14:18:31.443Z,4.63
2022-11-28T14:20:58.894Z,4.30
2022-11-28T14:23:33.092Z,4.70
2022-11-28T14:26:01.588Z,4.30
2022-11-28T14:28:32.523Z,5.23
2022-11-28T14:31:06.036Z,5.33
2022-11-28T14:33:36.882Z,5.20
2022-11-28T14:36:24.123Z,5.00
2022-11-28T14:39:32.855Z,5.30
2022-11-28T14:42:51.832Z,5.10
2022-11-28T14:45:41.015Z,4.70
2022-11-28T14:48:16.784Z,4.40
2022-11-28T14:50:59.048Z,4.90
2022-11-28T14:53:46.074Z,4.57
2022-11-28T14:56:26.186Z,4.43
2022-11-28T14:58:58.004Z,4.03
2022-11-28T15:01:34.018Z,4.77
2022-11-28T15:04:10.011Z,4.50
2022-11-28T15:06:39.248Z,4.10
2022-11-28T15:09:09.059Z,3.87
2022-11-28T15:11:46.266Z,4.33
2022-11-28T15:14:21.463Z,4.77
2022-11-28T15:16:50.941Z,4.23
2022-11-28T15:19:24.216Z,4.90
2022-11-28T15:21:53.405Z,5.40
2022-11-28T15:24:30.387Z,5.30
2022-11-28T15:27:19.511Z,5.53
2022-11-28T15:29:55.350Z,5.60
2022-11-28T15:32:23.703Z,5.53
2022-11-28T15:34:58.231Z,6.40
2022-11-28T15:37:29.262Z,5.90
2022-11-28T15:39:57.594Z,5.90
2022-11-28T15:42:29.826Z,6.03
2022-11-28T15:45:01.724Z,6.60
2022-11-28T15:47:29.739Z,6.97
2022-11-28T15:50:02.170Z,7.03
2022-11-28T15:52:30.074Z,6.77
2022-11-28T15:54:57.799Z,7.20
2022-11-28T15:57:28.557Z,7.47
2022-11-28T15:59:56.941Z,6.97
2022-11-28T16:02:28.119Z,8.53
2022-11-28T16:05:00.631Z,8.30
2022-11-28T16:07:28.437Z,8.73
2022-11-28T16:09:59.727Z,8.20
2022-11-28T16:12:29.745Z,7.53
2022-11-28T16:15:01.664Z,7.27
2022-11-28T16:17:31.162Z,8.10
2022-11-28T16:19:59.555Z,7.57
2022-11-28T16:22:33.929Z,7.17
2022-11-28T16:27:59.953Z,7.00
2022-11-28T16:30:34.712Z,6.23
2022-11-28T16:33:02.515Z,6.70
2022-11-28T16:35:31.929Z,7.33
2022-11-28T16:38:07.723Z,8.07
2022-11-28T16:40:35.502Z,7.50
2022-11-28T16:43:06.144Z,7.40
2022-11-28T16:45:34.680Z,8.40
2022-11-28T16:48:08.652Z,9.10
2022-11-28T16:50:36.689Z,9.30
2022-11-28T16:53:05.107Z,9.17
2022-11-28T16:55:45.113Z,9.47
2022-11-28T16:58:19.516Z,9.03
2022-11-28T17:01:00.247Z,7.93
2022-11-28T17:03:46.944Z,8.90
2022-11-28T17:06:18.267Z,8.33
2022-11-28T17:08:46.307Z,8.13
2022-11-28T17:11:14.838Z,7.60
2022-11-28T17:13:44.082Z,7.93
2022-11-28T17:16:21.424Z,7.87
2022-11-28T17:18:49.481Z,8.13
2022-11-28T17:21:20.097Z,7.87
2022-11-28T17:23:47.905Z,8.50
2022-11-28T17:26:15.575Z,8.77
2022-11-28T17:28:44.670Z,8.13
2022-11-28T17:31:13.828Z,7.77
2022-11-28T17:33:44.688Z,8.00
2022-11-28T17:36:12.991Z,7.63
2022-11-28T17:38:40.676Z,7.37
2022-11-28T17:41:12.706Z,8.33
2022-11-28T17:43:40.360Z,8.23
2022-11-28T17:46:09.915Z,8.43
2022-11-28T17:48:37.718Z,8.60
2022-11-28T17:51:06.143Z,8.47
2022-11-28T17:53:33.881Z,9.07
2022-11-28T17:56:01.583Z,8.50
2022-11-28T17:58:29.342Z,8.47
2022-11-28T18:01:00.457Z,9.90
2022-11-28T18:03:30.258Z,10.47
2022-11-28T18:05:57.941Z,10.07
2022-11-28T18:08:25.702Z,10.10
2022-11-28T18:11:03.712Z,10.13
2022-11-28T18:13:31.639Z,9.40
2022-11-28T18:15:59.335Z,9.60
2022-11-28T18:18:27.020Z,10.47
2022-11-28T18:20:56.189Z,10.10
2022-11-28T18:23:23.893Z,9.07
2022-11-28T18:25:53.027Z,9.07
2022-11-28T18:28:22.065Z,8.50
2022-11-28T18:30:49.785Z,8.87
2022-11-28T18:33:19.770Z,9.40
2022-11-28T18:35:47.474Z,9.73
2022-11-28T18:38:16.489Z,10.13
2022-11-28T18:40:44.147Z,9.70
2022-11-28T18:43:11.812Z,8.97
2022-11-28T18:45:39.529Z,8.60
2022-11-28T18:48:07.673Z,9.33
2022-11-28T18:50:36.024Z,8.97
2022-11-28T18:53:03.689Z,9.97
2022-11-28T18:55:32.803Z,10.00
2022-11-28T18:58:00.486Z,9.43
2022-11-28T19:00:28.290Z,8.73
2022-11-28T19:02:56.095Z,9.30
2022-11-28T19:05:23.739Z,8.57
2022-11-28T19:07:51.519Z,8.60
2022-11-28T19:10:19.382Z,8.60
2022-11-28T19:12:48.397Z,8.57
2022-11-28T19:15:16.383Z,9.13
2022-11-28T19:17:44.040Z,8.37
2022-11-28T19:20:12.960Z,7.80
2022-11-28T19:22:40.714Z,8.73
2022-11-28T19:28:01.200Z,8.10
2022-11-28T19:30:28.915Z,7.27
2022-11-28T19:32:56.908Z,7.27
2022-11-28T19:35:24.654Z,7.00
2022-11-28T19:37:52.331Z,7.50
2022-11-28T19:40:20.111Z,6.77
2022-11-28T19:42:47.771Z,6.10
2022-11-28T19:45:17.011Z,5.87
2022-11-28T19:47:46.492Z,5.83
2022-11-28T19:50:14.185Z,6.53
2022-11-28T19:52:41.894Z,7.10
2022-11-28T19:55:09.762Z,8.13
2022-11-28T19:57:37.963Z,8.17
2022-11-28T20:00:07.071Z,8.80
2022-11-28T20:02:36.237Z,7.47
2022-11-28T20:05:03.943Z,6.80
2022-11-28T20:07:31.608Z,5.57
2022-11-28T20:09:59.338Z,5.33
2022-11-28T20:12:26.996Z,4.50
2022-11-28T20:14:54.651Z,5.00
2022-11-28T20:17:22.346Z,4.70
2022-11-28T20:19:51.558Z,4.40
2022-11-28T20:22:21.880Z,4.37
2022-11-28T20:24:49.577Z,4.23
2022-11-28T20:27:17.304Z,4.90
2022-11-28T20:29:45.261Z,4.37
2022-11-28T20:32:13.215Z,4.30
2022-11-28T20:34:40.938Z,4.90
2022-11-28T20:37:10.101Z,4.43
2022-11-28T20:39:38.009Z,4.80
2022-11-28T20:42:05.880Z,4.70
2022-11-28T20:44:33.580Z,4.83
2022-11-28T20:47:01.315Z,4.30
2022-11-28T20:49:29.044Z,4.83
2022-11-28T20:51:56.745Z,5.07
2022-11-28T20:54:26.100Z,4.80
2022-11-28T20:59:43.062Z,4.60
2022-11-28T21:02:11.746Z,4.30
2022-11-28T21:04:39.462Z,4.87
2022-11-28T21:07:07.132Z,5.30
2022-11-28T21:09:36.192Z,4.80
2022-11-28T21:12:03.890Z,5.10
2022-11-28T21:14:31.603Z,5.23
2022-11-28T21:16:59.691Z,5.10
2022-11-28T21:19:27.444Z,5.30
2022-11-28T21:21:55.121Z,5.20
2022-11-28T21:24:22.835Z,5.37
2022-11-28T21:26:54.364Z,5.67
2022-11-28T21:29:23.920Z,6.13
2022-11-28T21:31:51.958Z,5.97
2022-11-28T21:34:19.914Z,6.13
2022-11-28T21:36:47.817Z,6.33
2022-11-28T21:39:17.075Z,6.37
2022-11-28T21:41:44.748Z,5.97
2022-11-28T21:44:13.765Z,6.40
2022-11-28T21:46:41.501Z,5.57
2022-11-28T21:49:09.273Z,6.43
2022-11-28T21:51:36.955Z,6.10
2022-11-28T21:54:04.797Z,5.93
2022-11-28T21:56:32.429Z,5.80
2022-11-28T21:59:00.130Z,5.97
2022-11-28T22:01:29.326Z,6.40
2022-11-28T22:04:02.181Z,5.80
2022-11-28T22:06:30.899Z,5.80
2022-11-28T22:08:58.592Z,5.87
2022-11-28T22:11:26.397Z,5.50
2022-11-28T22:13:54.106Z,5.47
2022-11-28T22:16:23.251Z,5.50
2022-11-28T22:18:53.485Z,5.87
2022-11-28T22:21:50.510Z,6.17
2022-11-28T22:24:09.505Z,5.80
2022-11-28T22:26:37.334Z,6.43
2022-11-28T22:29:05.033Z,6.37
2022-11-28T22:31:32.947Z,6.27
2022-11-28T22:34:55.167Z,6.67
2022-11-28T22:37:24.159Z,6.70
2022-11-28T22:39:51.861Z,6.80
2022-11-28T22:42:19.565Z,7.10
2022-11-28T22:44:48.275Z,6.93
2022-11-28T22:47:15.982Z,7.47
2022-11-28T22:49:43.676Z,6.50
2022-11-28T22:52:11.393Z,6.97
2022-11-28T22:54:40.435Z,7.27
2022-11-28T22:57:08.183Z,6.50
2022-11-28T22:59:38.245Z,7.10
2022-11-28T23:02:06.307Z,6.77
2022-11-28T23:04:34.080Z,7.33
2022-11-28T23:07:01.830Z,6.83
2022-11-28T23:09:29.514Z,6.33
2022-11-28T23:12:01.194Z,6.80
2022-11-28T23:14:28.889Z,7.27
2022-11-28T23:16:56.524Z,8.33
2022-11-28T23:19:24.250Z,8.13
2022-11-28T23:21:51.978Z,7.47
2022-11-28T23:24:21.941Z,7.40
2022-11-28T23:26:50.307Z,7.53
2022-11-28T23:29:19.722Z,8.13
2022-11-28T23:31:48.378Z,7.37
2022-11-28T23:34:16.716Z,7.40
2022-11-28T23:36:45.967Z,7.03
2022-11-28T23:39:15.946Z,8.03
2022-11-28T23:41:43.735Z,7.37
2022-11-28T23:44:12.237Z,7.67
2022-11-28T23:46:41.558Z,8.03
2022-11-28T23:49:09.741Z,7.67
2022-11-28T23:51:38.335Z,7.20
2022-11-28T23:54:06.158Z,6.97
2022-11-28T23:56:35.090Z,7.33
2022-11-28T23:59:06.321Z,7.80
